Time;durP1;ratioP1;P1;durP2;ratioP2;P2;SDS_P1;SDS_P2;PMS_P1;PMS_P2;Temp;Humidity;BMP_temperature;BMP_pressure;BME280_temperature;BME280_humidity;BME280_pressure;Samples;Min_cycle;Max_cycle;Signal;HPM_P1;HPM_P2
2021/03/04 00:01:05;;;;;;;110.40;70.17;;;8.20;99.90;;;;;;5042387;28;20474;-76
2021/03/04 00:03:32;;;;;;;124.93;75.30;;;8.20;99.90;;;;;;5042366;28;20579;-75
2021/03/04 00:05:58;;;;;;;107.30;67.23;;;8.20;99.90;;;;;;5044834;28;20462;-71
2021/03/04 00:08:24;;;;;;;91.73;59.50;;;8.30;99.90;;;;;;5037890;28;20474;-74
2021/03/04 00:10:51;;;;;;;81.50;57.27;;;8.30;99.90;;;;;;5037274;28;21056;-72
2021/03/04 00:13:17;;;;;;;98.80;61.57;;;8.20;99.90;;;;;;5038514;28;20467;-73
2021/03/04 00:15:43;;;;;;;102.07;61.63;;;8.20;99.90;;;;;;5041450;28;21014;-74
2021/03/04 00:18:11;;;;;;;86.73;58.00;;;8.20;99.90;;;;;;5043570;28;20915;-75
2021/03/04 00:20:37;;;;;;;81.50;58.27;;;8.20;99.90;;;;;;5037464;28;20494;-73
2021/03/04 00:23:04;;;;;;;91.17;59.50;;;8.20;99.90;;;;;;5039739;28;20570;-74
2021/03/04 00:25:33;;;;;;;84.83;54.20;;;7.90;99.90;;;;;;5035312;28;20989;-72
2021/03/04 00:27:59;;;;;;;79.63;56.07;;;7.90;99.90;;;;;;5035962;28;20466;-74
2021/03/04 00:30:27;;;;;;;88.10;60.20;;;7.90;99.90;;;;;;5039020;28;20602;-73
2021/03/04 00:32:54;;;;;;;85.93;61.40;;;7.90;99.90;;;;;;5035238;28;20494;-72
2021/03/04 00:35:22;;;;;;;95.30;61.97;;;7.90;99.90;;;;;;5041310;28;20474;-73
2021/03/04 00:37:48;;;;;;;101.97;64.93;;;7.90;99.90;;;;;;5040990;28;20472;-72
2021/03/04 00:40:17;;;;;;;96.50;60.80;;;7.90;99.90;;;;;;5035410;28;20533;-72
2021/03/04 00:42:44;;;;;;;88.90;60.90;;;8.00;99.90;;;;;;5040827;28;20492;-71
2021/03/04 00:45:12;;;;;;;93.73;59.47;;;8.10;99.90;;;;;;5034878;28;20517;-74
2021/03/04 00:47:39;;;;;;;103.33;62.13;;;8.10;99.90;;;;;;5036817;28;20464;-74
2021/03/04 00:50:07;;;;;;;96.00;63.00;;;8.10;99.90;;;;;;5040871;28;20473;-74
2021/03/04 00:52:35;;;;;;;101.90;63.50;;;8.10;99.90;;;;;;5043805;28;20472;-75
2021/03/04 00:55:01;;;;;;;108.93;66.20;;;8.10;99.90;;;;;;5039989;28;20468;-75
2021/03/04 00:57:28;;;;;;;106.30;66.50;;;8.20;99.90;;;;;;5035621;28;20460;-72
2021/03/04 00:59:54;;;;;;;118.80;69.73;;;8.10;99.90;;;;;;5040468;28;20470;-73
2021/03/04 01:02:20;;;;;;;106.60;70.60;;;8.00;99.90;;;;;;5039288;28;20562;-74
2021/03/04 01:04:47;;;;;;;104.30;66.10;;;8.00;99.90;;;;;;5038805;28;20460;-73
2021/03/04 01:07:15;;;;;;;94.37;60.90;;;8.10;99.90;;;;;;5035434;28;20487;-72
2021/03/04 01:09:42;;;;;;;108.37;65.77;;;8.00;99.90;;;;;;5040706;28;20529;-74
2021/03/04 01:12:09;;;;;;;114.53;64.47;;;7.80;99.90;;;;;;5042104;28;20479;-75
2021/03/04 01:14:36;;;;;;;100.23;60.73;;;7.70;99.90;;;;;;5040993;28;21265;-71
2021/03/04 01:17:03;;;;;;;86.67;55.87;;;7.70;99.90;;;;;;5037815;28;20460;-72
2021/03/04 01:19:30;;;;;;;97.23;59.47;;;7.60;99.90;;;;;;5037701;28;21052;-73
2021/03/04 01:21:57;;;;;;;98.83;65.63;;;7.70;99.90;;;;;;5033352;28;20833;-72
2021/03/04 01:24:23;;;;;;;92.13;60.83;;;7.70;99.90;;;;;;5039354;28;20490;-73
2021/03/04 01:26:50;;;;;;;89.83;60.47;;;7.70;99.90;;;;;;5040159;28;20463;-73
2021/03/04 01:29:17;;;;;;;87.00;57.53;;;7.70;99.90;;;;;;5036207;28;20855;-75
2021/03/04 01:31:43;;;;;;;97.43;61.13;;;7.70;99.90;;;;;;5034771;28;20467;-73
2021/03/04 01:34:10;;;;;;;91.37;59.93;;;7.70;99.90;;;;;;5037388;28;20460;-72
2021/03/04 01:36:36;;;;;;;85.30;58.43;;;7.60;99.90;;;;;;5041360;28;20461;-73
2021/03/04 01:39:05;;;;;;;93.97;65.40;;;7.60;99.90;;;;;;5041618;28;20464;-73
2021/03/04 01:41:31;;;;;;;95.50;59.43;;;7.60;99.90;;;;;;5035717;28;20510;-72
2021/03/04 01:43:58;;;;;;;98.67;60.80;;;7.50;99.90;;;;;;5036911;28;21062;-72
2021/03/04 01:46:25;;;;;;;113.57;62.67;;;7.40;99.90;;;;;;5039362;28;20471;-71
2021/03/04 01:48:53;;;;;;;102.40;60.90;;;7.40;99.90;;;;;;5035517;28;20471;-73
2021/03/04 01:51:20;;;;;;;99.33;63.47;;;7.40;99.90;;;;;;5036929;28;20464;-73
2021/03/04 01:53:46;;;;;;;104.80;63.07;;;7.40;99.90;;;;;;5039094;28;20769;-73
2021/03/04 01:56:14;;;;;;;122.83;69.13;;;7.40;99.90;;;;;;5040293;28;20471;-74
2021/03/04 01:58:42;;;;;;;112.50;66.57;;;7.40;99.90;;;;;;5034572;28;20815;-74
2021/03/04 02:01:10;;;;;;;115.67;69.50;;;7.30;99.90;;;;;;5039702;28;20523;-73
2021/03/04 02:03:37;;;;;;;117.20;70.73;;;7.20;99.90;;;;;;5038521;28;20499;-74
2021/03/04 02:06:03;;;;;;;121.27;69.43;;;7.20;99.90;;;;;;5037308;28;20491;-73
2021/03/04 02:08:37;;;;;;;112.50;66.43;;;7.20;99.90;;;;;;5038042;28;20464;-73
2021/03/04 02:11:08;;;;;;;107.20;66.00;;;7.20;99.90;;;;;;5035280;28;20534;-72
2021/03/04 02:13:37;;;;;;;113.57;70.03;;;7.20;99.90;;;;;;5033347;28;20456;-71
2021/03/04 02:16:07;;;;;;;112.67;65.27;;;7.20;99.90;;;;;;5037589;28;20968;-72
2021/03/04 02:18:39;;;;;;;111.50;67.57;;;7.20;99.90;;;;;;5040817;28;20457;-72
2021/03/04 02:21:22;;;;;;;110.93;70.27;;;7.20;99.90;;;;;;5040613;28;20494;-74
2021/03/04 02:24:25;;;;;;;102.63;64.27;;;7.20;99.90;;;;;;5038336;28;20502;-73
2021/03/04 02:27:03;;;;;;;105.10;64.50;;;7.10;99.90;;;;;;5019699;28;20461;-74
2021/03/04 02:29:35;;;;;;;125.23;72.87;;;7.10;99.90;;;;;;5033848;28;20530;-72
2021/03/04 02:32:01;;;;;;;118.77;68.67;;;7.00;99.90;;;;;;5034211;28;20470;-73
2021/03/04 02:34:29;;;;;;;111.30;68.57;;;7.00;99.90;;;;;;5036663;28;20994;-72
2021/03/04 02:36:58;;;;;;;118.63;69.07;;;6.90;99.90;;;;;;5035789;28;20514;-74
2021/03/04 02:39:25;;;;;;;134.93;71.17;;;6.90;99.90;;;;;;5039062;28;20690;-73
2021/03/04 02:41:53;;;;;;;118.93;69.80;;;7.00;99.90;;;;;;5034237;28;20464;-71
2021/03/04 02:44:22;;;;;;;121.07;70.63;;;7.00;99.90;;;;;;5038633;28;20556;-73
2021/03/04 02:46:50;;;;;;;107.73;68.77;;;7.10;99.90;;;;;;5030093;28;20518;-71
2021/03/04 02:49:18;;;;;;;111.77;70.57;;;7.00;99.90;;;;;;5033614;28;20461;-73
2021/03/04 02:51:45;;;;;;;123.77;71.80;;;7.00;99.90;;;;;;5036703;28;20563;-72
2021/03/04 02:54:12;;;;;;;129.03;71.10;;;6.90;99.90;;;;;;5034252;28;20471;-73
2021/03/04 02:56:40;;;;;;;111.80;70.00;;;6.80;99.90;;;;;;5030163;28;20973;-73
2021/03/04 02:59:08;;;;;;;122.67;68.53;;;6.70;99.90;;;;;;5038133;28;21055;-73
2021/03/04 03:01:36;;;;;;;121.77;66.77;;;6.70;99.90;;;;;;5041622;28;20925;-73
2021/03/04 03:04:04;;;;;;;117.60;73.97;;;6.70;99.90;;;;;;5030233;28;20501;-73
2021/03/04 03:06:33;;;;;;;103.30;64.70;;;6.60;99.90;;;;;;5031885;28;20475;-72
2021/03/04 03:09:00;;;;;;;105.33;65.07;;;6.60;99.90;;;;;;5033304;28;20449;-73
2021/03/04 03:11:27;;;;;;;117.07;69.53;;;6.50;99.90;;;;;;5031393;28;20887;-72
2021/03/04 03:13:54;;;;;;;130.20;76.03;;;6.40;99.90;;;;;;5034105;28;20461;-73
2021/03/04 03:16:21;;;;;;;119.70;72.10;;;6.40;99.90;;;;;;5033821;28;20548;-72
2021/03/04 03:18:49;;;;;;;128.50;78.10;;;6.40;99.90;;;;;;5035453;28;20468;-72
2021/03/04 03:21:15;;;;;;;139.57;75.00;;;6.30;99.90;;;;;;5030590;28;20495;-73
2021/03/04 03:23:41;;;;;;;134.90;75.57;;;6.30;99.90;;;;;;5035584;28;20514;-73
2021/03/04 03:26:08;;;;;;;131.60;75.07;;;6.30;99.90;;;;;;5030810;28;20467;-73
2021/03/04 03:28:34;;;;;;;135.00;78.77;;;6.40;99.90;;;;;;5032178;28;21018;-72
2021/03/04 03:31:00;;;;;;;138.60;76.70;;;6.40;99.90;;;;;;5031577;28;20534;-72
2021/03/04 03:33:28;;;;;;;112.57;70.03;;;6.50;99.90;;;;;;5034948;28;20476;-71
2021/03/04 03:35:56;;;;;;;126.40;70.00;;;6.60;99.90;;;;;;5032693;28;20460;-72
2021/03/04 03:38:23;;;;;;;123.57;73.90;;;6.60;99.90;;;;;;5037706;28;20555;-72
2021/03/04 03:40:52;;;;;;;120.40;70.53;;;6.60;99.90;;;;;;5040712;28;20567;-73
2021/03/04 03:43:20;;;;;;;139.43;75.37;;;6.40;99.90;;;;;;5034406;28;20486;-72
2021/03/04 03:45:51;;;;;;;139.23;79.20;;;6.50;99.90;;;;;;5036554;28;20456;-73
2021/03/04 03:48:21;;;;;;;134.47;77.80;;;6.70;99.90;;;;;;5039879;28;20523;-73
2021/03/04 03:50:50;;;;;;;127.67;70.67;;;6.90;99.90;;;;;;5034618;28;21225;-74
2021/03/04 03:53:18;;;;;;;144.00;77.43;;;6.90;99.90;;;;;;5031943;28;20467;-73
2021/03/04 03:55:49;;;;;;;135.80;78.30;;;6.90;99.90;;;;;;5035332;28;20778;-73
2021/03/04 03:58:17;;;;;;;129.07;77.40;;;7.00;99.90;;;;;;5036375;28;21049;-72
2021/03/04 04:00:44;;;;;;;134.33;80.30;;;7.20;99.90;;;;;;5041415;28;20470;-73
2021/03/04 04:03:11;;;;;;;153.53;83.57;;;7.20;99.90;;;;;;5038967;28;21037;-73
2021/03/04 04:05:38;;;;;;;149.83;80.00;;;7.30;99.90;;;;;;5040510;28;20463;-72
2021/03/04 04:08:05;;;;;;;150.33;81.07;;;7.30;99.90;;;;;;5039411;28;20494;-74
2021/03/04 04:10:35;;;;;;;150.20;75.20;;;7.40;99.90;;;;;;5038732;28;20490;-72
2021/03/04 04:13:03;;;;;;;149.63;82.97;;;7.40;99.90;;;;;;5039539;28;20518;-72
2021/03/04 04:15:30;;;;;;;144.97;81.20;;;7.40;99.90;;;;;;5041747;28;20476;-72
2021/03/04 04:17:59;;;;;;;138.03;78.13;;;7.40;99.90;;;;;;5038283;28;20474;-72
2021/03/04 04:20:26;;;;;;;134.10;82.37;;;7.50;99.90;;;;;;5038591;28;20493;-72
2021/03/04 04:22:54;;;;;;;138.57;77.13;;;7.50;99.90;;;;;;5038321;28;20503;-73
2021/03/04 04:25:22;;;;;;;150.03;81.17;;;7.40;99.90;;;;;;5038946;28;20930;-73
2021/03/04 04:27:50;;;;;;;147.33;82.23;;;7.40;99.90;;;;;;5042796;28;20853;-72
2021/03/04 04:30:19;;;;;;;138.53;77.73;;;7.30;99.90;;;;;;5040771;28;20585;-73
2021/03/04 04:32:46;;;;;;;130.30;71.60;;;7.10;99.90;;;;;;5036852;28;20466;-73
2021/03/04 04:35:14;;;;;;;140.90;72.37;;;7.20;99.90;;;;;;5041152;28;20848;-73
2021/03/04 04:37:41;;;;;;;138.40;73.70;;;7.30;99.90;;;;;;5039980;28;21028;-73
2021/03/04 04:40:08;;;;;;;134.13;69.07;;;7.30;99.90;;;;;;5047395;28;20946;-74
2021/03/04 04:42:35;;;;;;;134.17;75.60;;;7.30;99.90;;;;;;5046357;28;20474;-72
2021/03/04 04:45:03;;;;;;;126.17;74.17;;;7.30;99.90;;;;;;5043580;28;20517;-73
2021/03/04 04:47:30;;;;;;;146.00;79.27;;;7.30;99.90;;;;;;5040492;28;20463;-74
2021/03/04 04:49:56;;;;;;;122.80;76.40;;;7.30;99.90;;;;;;5043135;28;20466;-74
2021/03/04 04:52:23;;;;;;;147.33;78.83;;;7.30;99.90;;;;;;5044105;28;20464;-72
2021/03/04 04:54:49;;;;;;;146.23;80.70;;;7.30;99.90;;;;;;5045011;28;21005;-73
2021/03/04 04:57:15;;;;;;;139.87;81.77;;;7.40;99.90;;;;;;5041335;28;20967;-74
2021/03/04 04:59:41;;;;;;;157.23;79.87;;;7.40;99.90;;;;;;5041156;28;20551;-73
2021/03/04 05:02:10;;;;;;;135.00;76.07;;;7.40;99.90;;;;;;5041195;28;20470;-73
2021/03/04 05:04:36;;;;;;;150.97;81.77;;;7.50;99.90;;;;;;5041912;28;20491;-74
2021/03/04 05:07:03;;;;;;;133.27;74.20;;;7.50;99.90;;;;;;5045340;28;20463;-74
2021/03/04 05:09:30;;;;;;;130.57;77.23;;;7.50;99.90;;;;;;5039244;28;20459;-73
2021/03/04 05:11:56;;;;;;;137.67;76.90;;;7.60;99.90;;;;;;5039967;28;20483;-73
2021/03/04 05:14:22;;;;;;;135.40;80.87;;;7.50;99.90;;;;;;5042852;28;20464;-74
2021/03/04 05:16:55;;;;;;;127.80;75.70;;;7.60;99.90;;;;;;5044125;28;20460;-74
2021/03/04 05:19:22;;;;;;;133.30;75.60;;;7.70;99.90;;;;;;5044221;28;20529;-74
2021/03/04 05:21:49;;;;;;;148.80;74.70;;;7.60;99.90;;;;;;5042287;28;20855;-72
2021/03/04 05:24:15;;;;;;;145.13;79.97;;;7.60;99.90;;;;;;5043337;28;20506;-75
2021/03/04 05:26:41;;;;;;;148.33;81.90;;;7.50;99.90;;;;;;5039528;28;20466;-72
2021/03/04 05:29:08;;;;;;;158.77;88.47;;;7.40;99.90;;;;;;5041291;28;20817;-71
2021/03/04 05:31:34;;;;;;;152.80;86.57;;;7.40;99.90;;;;;;5043821;28;20466;-74
2021/03/04 05:34:01;;;;;;;165.27;90.73;;;7.40;99.90;;;;;;5044244;28;20487;-72
2021/03/04 05:36:28;;;;;;;148.13;89.67;;;7.30;99.90;;;;;;5041584;28;20467;-74
2021/03/04 05:38:54;;;;;;;149.30;83.80;;;7.40;99.90;;;;;;5041831;28;20467;-74
2021/03/04 05:41:22;;;;;;;158.60;88.77;;;7.40;99.90;;;;;;5044370;28;20523;-74
2021/03/04 05:43:49;;;;;;;168.83;88.10;;;7.30;99.90;;;;;;5040630;28;21017;-75
2021/03/04 05:46:19;;;;;;;165.27;87.27;;;7.20;99.90;;;;;;5042954;28;20795;-78
2021/03/04 05:48:48;;;;;;;157.93;83.63;;;6.90;99.90;;;;;;5044281;28;20461;-77
2021/03/04 05:51:18;;;;;;;19.90;18.90;;;6.80;99.90;;;;;;5041548;28;20479;-80
2021/03/04 05:53:47;;;;;;;18.50;17.60;;;6.80;99.90;;;;;;5040589;28;20467;-79
2021/03/04 05:56:16;;;;;;;18.33;17.43;;;6.60;99.90;;;;;;5040659;28;20497;-79
2021/03/04 05:58:44;;;;;;;18.43;17.53;;;6.60;99.90;;;;;;5042327;28;20465;-78
2021/03/04 06:01:11;;;;;;;20.00;19.00;;;6.60;99.90;;;;;;5044007;28;20475;-78
2021/03/04 06:03:40;;;;;;;19.37;18.47;;;6.60;99.90;;;;;;5042134;28;20480;-77
2021/03/04 06:06:07;;;;;;;19.07;18.17;;;6.60;99.90;;;;;;5040845;28;20539;-76
2021/03/04 06:08:34;;;;;;;18.60;17.70;;;6.60;99.90;;;;;;5040938;28;20556;-80
2021/03/04 06:11:01;;;;;;;17.77;16.97;;;6.60;99.90;;;;;;5036778;28;20487;-82
2021/03/04 06:13:28;;;;;;;18.80;17.90;;;6.60;99.90;;;;;;5040324;28;20840;-78
2021/03/04 06:15:55;;;;;;;18.20;17.40;;;6.60;99.90;;;;;;5042336;28;20452;-79
2021/03/04 06:18:22;;;;;;;17.70;16.90;;;6.60;99.90;;;;;;5043019;28;20464;-80
2021/03/04 06:20:50;;;;;;;17.53;16.73;;;6.50;99.90;;;;;;5043148;28;21007;-78
2021/03/04 06:26:07;;;;;;;17.00;16.20;;;6.30;99.90;;;;;;5028967;28;20460;-80
2021/03/04 06:28:34;;;;;;;17.47;16.67;;;6.40;99.90;;;;;;5030897;28;20500;-77
2021/03/04 06:31:00;;;;;;;17.30;16.50;;;6.50;99.90;;;;;;5036791;28;20502;-77
2021/03/04 06:33:34;;;;;;;18.27;17.40;;;6.40;99.90;;;;;;5039750;28;20470;-77
2021/03/04 06:46:05;;;;;;;19.27;18.27;;;6.70;99.90;;;;;;5037209;28;20479;-80
2021/03/04 06:48:31;;;;;;;18.70;17.80;;;6.70;99.90;;;;;;5045415;28;20464;-80
2021/03/04 06:54:24;;;;;;;18.27;17.37;;;6.80;99.90;;;;;;5037758;28;21339;-75
2021/03/04 06:56:50;;;;;;;18.17;17.27;;;6.70;99.90;;;;;;5036485;28;20468;-80
2021/03/04 06:59:17;;;;;;;18.17;17.27;;;6.60;99.90;;;;;;5032708;28;20461;-79
2021/03/04 07:01:44;;;;;;;17.27;16.47;;;6.70;99.90;;;;;;5029455;28;20489;-77
2021/03/04 07:05:11;;;;;;;18.20;17.30;;;6.60;99.90;;;;;;5027295;28;21101;-79
2021/03/04 07:07:38;;;;;;;17.00;16.20;;;6.60;99.90;;;;;;5033485;28;20466;-76
2021/03/04 07:10:05;;;;;;;17.10;16.20;;;6.60;99.90;;;;;;5030489;28;20467;-77
2021/03/04 07:12:33;;;;;;;30.77;29.03;;;6.70;99.90;;;;;;5037765;28;20465;-77
2021/03/04 07:15:01;;;;;;;18.00;17.10;;;6.70;99.90;;;;;;5038634;28;20472;-78
2021/03/04 07:17:38;;;;;;;18.10;17.20;;;6.60;99.90;;;;;;5033207;28;20514;-79
2021/03/04 07:20:08;;;;;;;30.40;27.37;;;6.70;99.90;;;;;;5034700;28;20483;-77
2021/03/04 07:22:34;;;;;;;17.57;16.77;;;6.70;99.90;;;;;;5037807;28;20486;-76
2021/03/04 07:25:01;;;;;;;17.50;16.70;;;6.70;99.90;;;;;;5038967;28;20473;-76
2021/03/04 07:27:28;;;;;;;17.73;16.93;;;6.60;99.90;;;;;;5037318;28;20456;-78
2021/03/04 07:29:54;;;;;;;18.37;17.47;;;6.50;99.90;;;;;;5034671;28;20514;-78
2021/03/04 07:32:22;;;;;;;17.93;17.03;;;6.60;99.90;;;;;;5034784;28;20469;-77
2021/03/04 07:34:49;;;;;;;18.37;17.47;;;6.60;99.90;;;;;;5038128;28;20460;-77
2021/03/04 07:37:18;;;;;;;18.30;17.40;;;6.60;99.90;;;;;;5038535;28;20484;-77
2021/03/04 07:39:46;;;;;;;22.30;21.10;;;6.70;99.90;;;;;;5037954;28;20491;-78
2021/03/04 07:42:17;;;;;;;17.67;16.87;;;6.60;99.90;;;;;;5035916;28;20559;-76
2021/03/04 07:44:43;;;;;;;20.07;18.97;;;6.50;99.90;;;;;;5034954;28;21032;-77
2021/03/04 07:47:10;;;;;;;17.60;16.80;;;6.60;99.90;;;;;;5034142;28;21263;-77
2021/03/04 07:52:38;;;;;;;17.90;17.03;;;6.60;99.90;;;;;;5029589;28;20470;-77
2021/03/04 07:55:09;;;;;;;19.03;18.13;;;6.60;99.90;;;;;;5038192;28;20480;-77
2021/03/04 07:57:43;;;;;;;18.20;17.30;;;6.70;99.90;;;;;;5038165;28;20475;-75
2021/03/04 08:00:13;;;;;;;18.73;17.83;;;6.70;99.90;;;;;;5031891;28;20507;-77
2021/03/04 08:02:42;;;;;;;18.77;17.87;;;6.70;99.90;;;;;;5031973;28;21003;-77
2021/03/04 08:05:09;;;;;;;18.50;17.60;;;6.80;99.90;;;;;;5033370;28;21115;-77
2021/03/04 08:07:36;;;;;;;18.47;17.57;;;6.80;99.90;;;;;;5033652;28;20461;-77
2021/03/04 08:10:09;;;;;;;18.97;18.07;;;6.70;99.90;;;;;;5030889;28;20514;-76
2021/03/04 08:12:49;;;;;;;18.60;17.70;;;6.60;99.90;;;;;;5033401;28;20469;-79
2021/03/04 08:15:16;;;;;;;16.93;16.13;;;6.80;99.90;;;;;;5039672;28;20868;-80
2021/03/04 08:17:44;;;;;;;17.47;16.67;;;6.70;99.90;;;;;;5039541;28;20458;-80
2021/03/04 08:20:12;;;;;;;16.07;15.37;;;6.80;99.90;;;;;;5033804;28;20934;-77
2021/03/04 08:22:47;;;;;;;19.97;18.60;;;6.80;99.90;;;;;;5044600;28;20459;-77
2021/03/04 08:25:19;;;;;;;16.60;15.80;;;7.00;99.90;;;;;;5039477;28;20464;-76
2021/03/04 08:27:46;;;;;;;17.50;16.70;;;6.90;99.90;;;;;;5038537;28;20519;-76
2021/03/04 08:30:13;;;;;;;16.53;15.73;;;6.80;99.90;;;;;;5040282;28;20571;-78
2021/03/04 08:32:54;;;;;;;17.87;16.97;;;6.90;99.90;;;;;;5036963;28;22532;-75
2021/03/04 08:35:37;;;;;;;17.60;16.80;;;6.90;99.90;;;;;;5034126;28;20470;-76
2021/03/04 08:38:09;;;;;;;18.77;17.87;;;6.90;99.90;;;;;;5039274;28;20549;-75
2021/03/04 08:40:40;;;;;;;17.47;16.67;;;6.80;99.90;;;;;;5044484;28;20468;-76
2021/03/04 08:43:15;;;;;;;17.70;16.90;;;7.00;99.90;;;;;;5038479;28;20537;-75
2021/03/04 08:45:42;;;;;;;17.37;16.57;;;7.10;99.90;;;;;;5036920;28;20517;-77
2021/03/04 08:48:10;;;;;;;17.87;16.97;;;7.20;99.90;;;;;;5042537;28;20470;-76
2021/03/04 08:50:39;;;;;;;21.17;20.17;;;7.30;99.90;;;;;;5046715;28;20494;-75
2021/03/04 08:53:10;;;;;;;17.90;17.00;;;7.50;99.90;;;;;;5034497;28;20471;-73
2021/03/04 08:55:44;;;;;;;18.30;17.40;;;7.60;99.90;;;;;;5028839;28;20539;-76
2021/03/04 08:58:10;;;;;;;18.93;17.93;;;7.70;99.90;;;;;;5037946;28;20468;-76
2021/03/04 09:00:37;;;;;;;18.20;17.30;;;7.80;99.90;;;;;;5040186;28;20466;-76
2021/03/04 09:03:07;;;;;;;17.60;16.70;;;7.60;99.90;;;;;;5038017;28;20542;-74
2021/03/04 09:05:33;;;;;;;18.70;17.70;;;7.60;99.90;;;;;;5029267;28;20551;-75
2021/03/04 09:08:07;;;;;;;18.20;17.30;;;7.60;99.90;;;;;;5039086;28;20462;-74
2021/03/04 09:10:45;;;;;;;17.50;16.70;;;7.50;99.90;;;;;;5038335;28;20499;-74
2021/03/04 09:13:18;;;;;;;21.00;19.90;;;7.40;99.90;;;;;;5035234;28;21160;-75
2021/03/04 09:15:48;;;;;;;17.67;16.77;;;7.40;99.90;;;;;;5033877;28;20499;-75
2021/03/04 09:18:16;;;;;;;17.53;16.73;;;7.40;99.90;;;;;;5026474;28;20498;-75
2021/03/04 09:20:43;;;;;;;17.77;16.97;;;7.30;99.90;;;;;;5030729;28;20499;-74
2021/03/04 09:23:11;;;;;;;17.57;16.77;;;7.40;99.90;;;;;;5025345;28;20546;-75
2021/03/04 09:25:37;;;;;;;20.23;19.23;;;7.30;99.90;;;;;;5036577;28;20464;-75
2021/03/04 09:28:07;;;;;;;17.50;16.70;;;7.10;99.90;;;;;;5038553;28;21044;-75
2021/03/04 09:30:34;;;;;;;17.10;16.30;;;7.10;99.90;;;;;;5035007;28;20543;-74
2021/03/04 09:33:00;;;;;;;17.50;16.70;;;7.00;99.90;;;;;;5033811;28;20525;-74
2021/03/04 09:35:35;;;;;;;17.07;16.27;;;7.00;99.90;;;;;;5036060;28;20463;-75
2021/03/04 09:38:06;;;;;;;16.97;16.17;;;7.10;99.90;;;;;;5027127;28;20954;-74
2021/03/04 09:40:32;;;;;;;17.10;16.30;;;7.00;99.90;;;;;;5032995;28;20522;-76
2021/03/04 09:42:59;;;;;;;17.03;16.23;;;6.90;99.90;;;;;;5029880;28;20980;-75
2021/03/04 09:45:27;;;;;;;16.80;16.00;;;7.00;99.90;;;;;;5028882;28;21203;-74
2021/03/04 09:47:53;;;;;;;15.80;15.10;;;6.80;99.90;;;;;;5028456;28;20875;-75
2021/03/04 09:50:24;;;;;;;16.10;15.40;;;6.80;99.90;;;;;;5030850;28;20456;-74
2021/03/04 09:53:01;;;;;;;15.23;14.53;;;6.90;99.90;;;;;;5027393;28;20479;-76
2021/03/04 09:55:36;;;;;;;15.93;15.23;;;7.00;99.90;;;;;;5030238;28;20455;-73
2021/03/04 09:58:10;;;;;;;15.90;15.20;;;7.00;99.90;;;;;;5028655;28;20644;-73
2021/03/04 10:00:44;;;;;;;16.17;15.47;;;7.10;99.90;;;;;;5023571;28;20475;-73
2021/03/04 10:03:12;;;;;;;15.80;15.10;;;7.20;99.90;;;;;;5035716;28;20464;-73
2021/03/04 10:05:48;;;;;;;16.23;15.43;;;7.10;99.90;;;;;;5027668;28;20575;-74
2021/03/04 10:08:15;;;;;;;15.97;15.27;;;6.90;99.90;;;;;;5031739;28;20517;-75
2021/03/04 10:10:43;;;;;;;16.00;15.20;;;7.00;99.90;;;;;;5026241;28;20484;-73
2021/03/04 10:13:09;;;;;;;15.50;14.80;;;7.10;99.90;;;;;;5034569;28;20776;-74
2021/03/04 10:15:38;;;;;;;15.80;15.00;;;7.00;99.90;;;;;;5030211;28;20517;-73
2021/03/04 10:18:08;;;;;;;14.90;14.20;;;6.80;99.90;;;;;;5029689;28;21020;-74
2021/03/04 10:20:40;;;;;;;14.83;14.13;;;6.90;99.90;;;;;;5032511;28;20488;-73
2021/03/04 10:23:07;;;;;;;15.00;14.30;;;6.90;99.90;;;;;;5030541;28;21234;-73
2021/03/04 10:25:34;;;;;;;14.33;13.63;;;7.00;99.90;;;;;;5028827;28;20471;-73
2021/03/04 10:28:03;;;;;;;15.17;14.47;;;7.10;99.90;;;;;;5027996;28;20474;-74
2021/03/04 10:30:30;;;;;;;14.63;13.93;;;7.00;99.90;;;;;;5029184;28;20809;-73
2021/03/04 10:32:58;;;;;;;14.70;14.00;;;7.00;99.90;;;;;;5031955;28;20464;-76
2021/03/04 10:35:24;;;;;;;14.37;13.67;;;6.90;99.90;;;;;;5034385;28;20472;-75
2021/03/04 10:37:51;;;;;;;14.30;13.60;;;6.80;99.90;;;;;;5031206;28;20483;-73
2021/03/04 10:40:19;;;;;;;14.43;13.73;;;6.90;99.90;;;;;;5029834;28;20540;-73
2021/03/04 10:42:45;;;;;;;14.97;14.27;;;7.10;99.90;;;;;;5031033;28;20463;-75
2021/03/04 10:45:14;;;;;;;14.97;14.23;;;6.90;99.90;;;;;;5030837;28;20493;-73
2021/03/04 10:47:43;;;;;;;14.83;14.13;;;6.80;99.90;;;;;;5040298;28;20459;-73
2021/03/04 10:50:12;;;;;;;15.37;14.57;;;6.70;99.90;;;;;;5029506;28;20465;-76
2021/03/04 10:52:39;;;;;;;15.70;14.90;;;6.70;99.90;;;;;;5031129;28;20520;-74
2021/03/04 10:55:07;;;;;;;15.93;15.13;;;6.70;99.90;;;;;;5031738;28;20464;-76
2021/03/04 10:57:34;;;;;;;15.50;14.70;;;6.70;99.90;;;;;;5033515;28;20475;-74
2021/03/04 11:00:00;;;;;;;15.40;14.60;;;6.70;99.90;;;;;;5033221;28;20459;-74
2021/03/04 11:02:27;;;;;;;15.33;14.53;;;6.60;99.90;;;;;;5034242;28;20478;-76
2021/03/04 11:04:53;;;;;;;15.43;14.63;;;6.60;99.90;;;;;;5032966;28;21477;-74
2021/03/04 11:07:20;;;;;;;15.80;15.00;;;6.60;99.90;;;;;;5031673;28;20518;-76
2021/03/04 11:09:46;;;;;;;15.80;15.00;;;6.70;99.90;;;;;;5025651;28;20467;-74
2021/03/04 11:12:13;;;;;;;15.93;15.13;;;6.60;99.90;;;;;;5031655;28;20488;-74
2021/03/04 11:14:39;;;;;;;15.67;14.87;;;6.50;99.90;;;;;;5036012;28;20624;-73
2021/03/04 11:17:06;;;;;;;14.97;14.27;;;6.20;99.90;;;;;;5030266;28;20463;-76
2021/03/04 11:19:32;;;;;;;15.77;14.97;;;6.20;99.90;;;;;;5027036;28;20638;-76
2021/03/04 11:21:58;;;;;;;14.97;14.27;;;6.00;99.90;;;;;;5023616;28;20459;-72
2021/03/04 11:24:26;;;;;;;14.87;14.17;;;5.90;99.90;;;;;;5031272;28;20485;-72
2021/03/04 11:26:53;;;;;;;15.10;14.40;;;5.90;99.90;;;;;;5033706;28;20964;-72
2021/03/04 11:29:19;;;;;;;14.97;14.27;;;5.90;99.90;;;;;;5030438;28;21001;-72
2021/03/04 11:31:45;;;;;;;15.10;14.40;;;5.80;99.90;;;;;;5029292;28;20466;-72
2021/03/04 11:34:12;;;;;;;15.80;15.00;;;5.60;99.90;;;;;;5033829;28;20559;-72
2021/03/04 11:36:39;;;;;;;14.87;14.17;;;5.60;99.90;;;;;;5028661;28;20496;-72
2021/03/04 11:39:05;;;;;;;15.40;14.70;;;5.60;99.90;;;;;;5036956;28;20463;-72
2021/03/04 11:41:33;;;;;;;15.63;14.83;;;5.70;99.90;;;;;;5027248;28;20489;-72
2021/03/04 11:43:59;;;;;;;15.67;14.87;;;5.80;99.90;;;;;;5034893;28;20498;-72
2021/03/04 11:46:25;;;;;;;15.67;14.87;;;5.80;99.90;;;;;;5041412;28;20835;-72
2021/03/04 11:48:53;;;;;;;16.17;15.37;;;5.80;99.90;;;;;;5035153;28;20507;-72
2021/03/04 11:51:20;;;;;;;15.97;15.17;;;5.60;99.90;;;;;;5036180;28;20932;-72
2021/03/04 11:53:46;;;;;;;16.20;15.40;;;5.80;99.90;;;;;;5031655;28;20510;-73
2021/03/04 11:56:13;;;;;;;16.10;15.30;;;5.80;99.90;;;;;;5034873;28;20464;-72
2021/03/04 11:58:40;;;;;;;17.27;16.37;;;5.90;99.90;;;;;;5036002;28;20460;-72
2021/03/04 12:01:06;;;;;;;17.20;16.30;;;5.90;99.90;;;;;;5035197;28;20478;-73
2021/03/04 12:03:33;;;;;;;16.60;15.80;;;5.80;99.90;;;;;;5030465;28;20858;-73
2021/03/04 12:05:59;;;;;;;16.97;16.07;;;5.80;99.90;;;;;;5027672;28;20469;-73
2021/03/04 12:08:26;;;;;;;16.60;15.80;;;5.70;99.90;;;;;;5036331;28;20472;-73
2021/03/04 12:10:52;;;;;;;16.73;15.93;;;5.70;99.90;;;;;;5030915;28;20599;-73
2021/03/04 12:13:18;;;;;;;17.23;16.43;;;5.60;99.90;;;;;;5037509;28;20467;-74
2021/03/04 12:15:45;;;;;;;16.63;15.83;;;5.60;99.90;;;;;;5032741;28;20463;-74
2021/03/04 12:18:12;;;;;;;16.63;15.83;;;5.60;99.90;;;;;;5035056;28;21008;-74
2021/03/04 12:20:38;;;;;;;16.00;15.20;;;5.60;99.90;;;;;;5033556;28;20500;-74
2021/03/04 12:23:06;;;;;;;16.20;15.40;;;5.60;99.90;;;;;;5029351;28;20472;-74
2021/03/04 12:25:34;;;;;;;16.63;15.83;;;5.60;99.90;;;;;;5039290;28;20460;-74
2021/03/04 12:28:00;;;;;;;16.17;15.37;;;5.80;99.90;;;;;;5038663;28;20578;-74
2021/03/04 12:30:27;;;;;;;16.50;15.70;;;5.80;99.90;;;;;;5037443;28;20465;-74
2021/03/04 12:32:54;;;;;;;16.30;15.50;;;5.70;99.90;;;;;;5035737;28;20522;-74
2021/03/04 12:35:20;;;;;;;16.10;15.30;;;5.70;99.90;;;;;;5036543;28;20539;-74
2021/03/04 12:37:48;;;;;;;16.27;15.47;;;5.60;99.90;;;;;;5029708;28;20965;-74
2021/03/04 12:40:16;;;;;;;16.47;15.67;;;5.40;99.90;;;;;;5040538;28;20469;-74
2021/03/04 12:42:42;;;;;;;16.60;15.80;;;5.40;99.90;;;;;;5036700;28;20776;-75
2021/03/04 12:45:09;;;;;;;15.80;15.00;;;5.50;99.90;;;;;;5032198;28;20548;-73
2021/03/04 12:47:36;;;;;;;15.97;15.17;;;5.30;99.90;;;;;;5023077;28;20975;-73
2021/03/04 12:50:04;;;;;;;16.30;15.50;;;5.50;99.90;;;;;;5033875;28;20526;-73
2021/03/04 12:52:31;;;;;;;16.57;15.77;;;5.60;99.90;;;;;;5034594;28;20467;-75
2021/03/04 12:54:57;;;;;;;16.23;15.43;;;5.50;99.90;;;;;;5032143;28;20658;-75
2021/03/04 12:57:24;;;;;;;17.27;16.37;;;5.40;99.90;;;;;;5038066;28;20502;-75